createdAt,value
2023-04-04T00:00:29.932Z,100.00
2023-04-04T00:02:56.999Z,100.00
2023-04-04T00:05:24.056Z,100.00
2023-04-04T00:07:51.104Z,100.00
2023-04-04T00:10:17.982Z,100.00
2023-04-04T00:12:44.948Z,100.00
2023-04-04T00:15:12.228Z,100.00
2023-04-04T00:17:39.119Z,100.00
2023-04-04T00:20:06.765Z,100.00
2023-04-04T00:22:33.700Z,100.00
2023-04-04T00:25:00.828Z,100.00
2023-04-04T00:27:27.813Z,100.00
2023-04-04T00:29:54.657Z,100.00
2023-04-04T00:32:21.856Z,100.00
2023-04-04T00:34:54.946Z,100.00
2023-04-04T00:37:22.164Z,100.00
2023-04-04T00:39:50.153Z,100.00
2023-04-04T00:42:17.260Z,100.00
2023-04-04T00:44:44.162Z,100.00
2023-04-04T00:47:11.327Z,100.00
2023-04-04T00:49:38.279Z,100.00
2023-04-04T00:52:07.384Z,100.00
2023-04-04T00:54:35.045Z,100.00
2023-04-04T00:57:02.293Z,100.00
2023-04-04T00:59:29.383Z,100.00
2023-04-04T01:01:56.751Z,100.00
2023-04-04T01:04:23.728Z,100.00
2023-04-04T01:06:51.047Z,100.00
2023-04-04T01:09:17.875Z,100.00
2023-04-04T01:11:44.803Z,100.00
2023-04-04T01:14:11.947Z,100.00
2023-04-04T01:16:39.954Z,100.00
2023-04-04T01:19:08.908Z,100.00
2023-04-04T01:21:36.248Z,100.00
2023-04-04T01:24:04.612Z,100.00
2023-04-04T01:26:51.469Z,100.00
2023-04-04T01:29:18.489Z,100.00
2023-04-04T01:32:17.151Z,100.00
2023-04-04T01:34:54.325Z,100.00
2023-04-04T01:37:28.062Z,100.00
2023-04-04T01:40:09.641Z,100.00
2023-04-04T01:42:36.962Z,100.00
2023-04-04T01:45:04.755Z,100.00
2023-04-04T01:47:39.374Z,100.00
2023-04-04T01:50:11.121Z,100.00
2023-04-04T01:52:38.572Z,100.00
2023-04-04T01:55:06.005Z,100.00
2023-04-04T01:57:33.764Z,100.00
2023-04-04T02:00:00.691Z,100.00
2023-04-04T02:02:27.825Z,100.00
2023-04-04T02:04:55.472Z,100.00
2023-04-04T02:07:22.497Z,100.00
2023-04-04T02:09:49.590Z,100.00
2023-04-04T02:12:16.544Z,100.00
2023-04-04T02:14:43.512Z,100.00
2023-04-04T02:17:10.898Z,100.00
2023-04-04T02:19:38.362Z,100.00
2023-04-04T02:22:06.104Z,100.00
2023-04-04T02:24:33.030Z,100.00
2023-04-04T02:27:00.044Z,100.00
2023-04-04T02:29:27.213Z,100.00
2023-04-04T02:31:54.165Z,100.00
2023-04-04T02:34:21.432Z,100.00
2023-04-04T02:36:51.844Z,100.00
2023-04-04T02:39:23.080Z,100.00
2023-04-04T02:41:51.388Z,100.00
2023-04-04T02:44:18.291Z,100.00
2023-04-04T02:46:46.856Z,100.00
2023-04-04T02:49:15.803Z,100.00
2023-04-04T02:51:47.804Z,100.00
2023-04-04T02:54:15.128Z,100.00
2023-04-04T02:56:45.251Z,100.00
2023-04-04T02:59:12.411Z,100.00
2023-04-04T03:01:39.506Z,100.00
2023-04-04T03:04:07.149Z,100.00
2023-04-04T03:06:35.462Z,100.00
2023-04-04T03:09:04.612Z,100.00
2023-04-04T03:11:31.974Z,100.00
2023-04-04T03:13:58.874Z,100.00
2023-04-04T03:16:33.049Z,100.00
2023-04-04T03:19:00.024Z,100.00
2023-04-04T03:21:30.136Z,100.00
2023-04-04T03:23:58.501Z,100.00
2023-04-04T03:26:25.599Z,100.00
2023-04-04T03:28:52.950Z,100.00
2023-04-04T03:31:22.085Z,100.00
2023-04-04T03:33:49.215Z,100.00
2023-04-04T03:36:16.775Z,100.00
2023-04-04T03:38:47.660Z,100.00
2023-04-04T03:41:15.392Z,100.00
2023-04-04T03:43:42.275Z,100.00
2023-04-04T03:46:09.215Z,100.00
2023-04-04T03:48:36.250Z,100.00
2023-04-04T03:51:06.814Z,100.00
2023-04-04T03:53:35.863Z,100.00
2023-04-04T03:56:02.863Z,100.00
2023-04-04T03:58:30.336Z,100.00
2023-04-04T04:00:57.218Z,100.00
2023-04-04T04:03:28.722Z,100.00
2023-04-04T04:05:55.823Z,100.00
2023-04-04T04:08:24.067Z,100.00
2023-04-04T04:10:52.233Z,100.00
2023-04-04T04:13:19.189Z,100.00
2023-04-04T04:15:46.320Z,100.00
2023-04-04T04:18:18.345Z,100.00
2023-04-04T04:20:45.811Z,100.00
2023-04-04T04:23:12.735Z,100.00
2023-04-04T04:25:40.507Z,100.00
2023-04-04T04:28:16.466Z,100.00
2023-04-04T04:30:44.398Z,100.00
2023-04-04T04:33:13.009Z,100.00
2023-04-04T04:35:52.478Z,100.00
2023-04-04T04:38:21.556Z,100.00
2023-04-04T04:40:49.787Z,100.00
2023-04-04T04:43:24.382Z,100.00
2023-04-04T04:45:51.804Z,100.00
2023-04-04T04:48:18.830Z,100.00
2023-04-04T04:50:50.657Z,100.00
2023-04-04T04:53:28.009Z,100.00
2023-04-04T04:55:55.087Z,100.00
2023-04-04T04:58:24.687Z,100.00
2023-04-04T05:00:56.801Z,100.00
2023-04-04T05:03:24.959Z,100.00
2023-04-04T05:05:52.450Z,100.00
2023-04-04T05:08:19.767Z,100.00
2023-04-04T05:11:04.727Z,100.00
2023-04-04T05:13:32.968Z,100.00
2023-04-04T05:16:00.406Z,100.00
2023-04-04T05:18:28.432Z,100.00
2023-04-04T05:20:56.015Z,100.00
2023-04-04T05:23:26.519Z,100.00
2023-04-04T05:25:54.405Z,100.00
2023-04-04T05:28:23.645Z,99.12
2023-04-04T05:30:53.620Z,98.36
2023-04-04T05:33:24.810Z,97.90
2023-04-04T05:36:01.966Z,97.35
2023-04-04T05:38:31.480Z,96.98
2023-04-04T05:40:58.410Z,96.55
2023-04-04T05:43:26.345Z,94.95
2023-04-04T05:46:07.738Z,94.91
2023-04-04T05:48:50.247Z,94.58
2023-04-04T05:51:17.791Z,94.38
2023-04-04T05:53:54.460Z,94.47
2023-04-04T05:56:26.483Z,94.42
2023-04-04T05:58:55.753Z,94.05
2023-04-04T06:01:23.314Z,93.77
2023-04-04T06:03:53.194Z,93.83
2023-04-04T06:06:25.206Z,93.65
2023-04-04T06:08:53.776Z,93.18
2023-04-04T06:11:23.095Z,92.62
2023-04-04T06:13:51.553Z,91.34
2023-04-04T06:16:21.549Z,91.61
2023-04-04T06:18:48.825Z,91.19
2023-04-04T06:21:15.937Z,90.61
2023-04-04T06:23:42.841Z,89.65
2023-04-04T06:26:09.835Z,87.88
2023-04-04T06:28:47.131Z,86.34
2023-04-04T06:31:14.460Z,85.67
2023-04-04T06:33:41.395Z,85.39
2023-04-04T06:36:08.597Z,84.34
2023-04-04T06:38:35.637Z,83.64
2023-04-04T06:41:06.868Z,82.87
2023-04-04T06:43:33.860Z,82.24
2023-04-04T06:46:01.320Z,81.42
2023-04-04T06:48:28.252Z,81.49
2023-04-04T06:50:55.724Z,81.21
2023-04-04T06:53:23.862Z,79.97
2023-04-04T06:55:51.796Z,78.77
2023-04-04T06:58:18.812Z,78.02
2023-04-04T07:00:46.282Z,77.31
2023-04-04T07:03:13.267Z,76.28
2023-04-04T07:05:40.110Z,74.71
2023-04-04T07:08:07.157Z,74.66
2023-04-04T07:10:33.982Z,74.92
2023-04-04T07:13:01.062Z,74.28
2023-04-04T07:15:28.247Z,71.60
2023-04-04T07:17:55.384Z,72.64
2023-04-04T07:20:22.406Z,71.70
2023-04-04T07:22:49.464Z,71.82
2023-04-04T07:25:16.791Z,71.43
2023-04-04T07:27:43.691Z,70.63
2023-04-04T07:30:11.877Z,70.13
2023-04-04T07:32:39.076Z,69.56
2023-04-04T07:35:07.084Z,68.53
2023-04-04T07:37:37.024Z,68.47
2023-04-04T07:40:08.845Z,68.97
2023-04-04T07:42:36.055Z,68.65
2023-04-04T07:45:03.128Z,68.18
2023-04-04T07:47:30.378Z,67.95
2023-04-04T07:49:57.300Z,67.94
2023-04-04T07:52:24.210Z,67.73
2023-04-04T07:54:52.455Z,66.93
2023-04-04T07:57:19.424Z,66.35
2023-04-04T07:59:46.361Z,66.13
2023-04-04T08:02:13.566Z,65.85
2023-04-04T08:04:40.649Z,65.19
2023-04-04T08:07:07.545Z,64.04
2023-04-04T08:09:36.424Z,62.34
2023-04-04T08:12:03.709Z,62.65
2023-04-04T08:14:31.458Z,62.30
2023-04-04T08:16:58.552Z,61.89
2023-04-04T08:19:25.556Z,63.09
2023-04-04T08:21:52.571Z,64.04
2023-04-04T08:24:19.606Z,63.29
2023-04-04T08:26:54.658Z,64.31
2023-04-04T08:29:29.552Z,63.62
2023-04-04T08:31:56.637Z,64.16
2023-04-04T08:34:23.736Z,64.46
2023-04-04T08:36:50.674Z,63.51
2023-04-04T08:39:17.706Z,63.18
2023-04-04T08:41:45.721Z,62.06
2023-04-04T08:44:17.370Z,62.36
2023-04-04T08:46:45.868Z,62.37
2023-04-04T08:49:16.921Z,61.54
2023-04-04T08:51:44.835Z,61.50
2023-04-04T08:54:12.059Z,61.20
2023-04-04T08:56:39.056Z,61.45
2023-04-04T08:59:06.048Z,60.03
2023-04-04T09:01:33.448Z,60.13
2023-04-04T09:04:00.851Z,60.91
2023-04-04T09:06:28.085Z,59.90
2023-04-04T09:08:55.061Z,58.70
2023-04-04T09:11:21.967Z,57.52
2023-04-04T09:13:49.189Z,56.95
2023-04-04T09:16:16.098Z,57.42
2023-04-04T09:18:43.613Z,57.20
2023-04-04T09:21:11.974Z,57.13
2023-04-04T09:23:38.947Z,57.88
2023-04-04T09:26:06.204Z,55.09
2023-04-04T09:28:36.712Z,52.36
2023-04-04T09:31:05.832Z,49.67
2023-04-04T09:33:35.913Z,48.83
2023-04-04T09:36:05.360Z,48.30
2023-04-04T09:38:32.542Z,47.99
2023-04-04T09:40:59.547Z,48.53
2023-04-04T09:43:26.594Z,46.94
2023-04-04T09:45:54.951Z,46.93
2023-04-04T09:48:35.391Z,46.32
2023-04-04T09:51:06.654Z,46.72
2023-04-04T09:53:39.965Z,46.36
2023-04-04T09:56:07.186Z,46.25
2023-04-04T09:58:37.274Z,46.29
2023-04-04T10:01:09.016Z,45.69
2023-04-04T10:03:37.012Z,46.09
2023-04-04T10:06:07.175Z,46.62
2023-04-04T10:08:34.670Z,47.02
2023-04-04T10:11:11.312Z,46.30
2023-04-04T10:13:44.723Z,46.50
2023-04-04T10:16:12.083Z,47.23
2023-04-04T10:18:39.787Z,46.61
2023-04-04T10:23:39.073Z,46.07
2023-04-04T10:26:06.673Z,46.51
2023-04-04T10:28:34.599Z,46.45
2023-04-04T10:31:20.267Z,46.28
2023-04-04T10:34:22.442Z,46.50
2023-04-04T10:36:50.712Z,46.95
2023-04-04T10:39:29.817Z,47.29
2023-04-04T10:41:56.930Z,47.58
2023-04-04T10:44:30.205Z,47.58
2023-04-04T10:46:59.007Z,48.24
2023-04-04T10:49:26.227Z,48.73
2023-04-04T10:51:56.392Z,48.98
2023-04-04T10:54:29.213Z,48.87
2023-04-04T10:57:00.685Z,49.32
2023-04-04T10:59:28.482Z,49.42
2023-04-04T11:01:58.238Z,49.68
2023-04-04T11:04:35.807Z,49.46
2023-04-04T11:07:18.202Z,49.31
2023-04-04T11:09:55.601Z,50.10
2023-04-04T11:12:33.710Z,50.39
2023-04-04T11:15:03.936Z,50.46
2023-04-04T11:17:49.434Z,50.15
2023-04-04T11:20:17.873Z,50.05
2023-04-04T11:22:45.694Z,50.77
2023-04-04T11:25:27.672Z,49.13
2023-04-04T11:27:55.010Z,48.83
2023-04-04T11:30:22.197Z,49.22
2023-04-04T11:32:59.913Z,49.83
2023-04-04T11:35:33.726Z,50.63
2023-04-04T11:38:01.100Z,51.10
2023-04-04T11:40:35.366Z,51.04
2023-04-04T11:43:04.004Z,51.77
2023-04-04T11:45:33.811Z,51.66
2023-04-04T11:48:01.433Z,51.34
2023-04-04T11:50:29.568Z,51.04
2023-04-04T11:52:59.190Z,50.44
2023-04-04T11:55:26.697Z,49.96
2023-04-04T11:57:55.675Z,50.07
2023-04-04T12:00:37.027Z,50.10
2023-04-04T12:03:05.714Z,49.57
2023-04-04T12:05:32.952Z,49.59
2023-04-04T12:08:02.332Z,49.59
2023-04-04T12:10:31.685Z,50.00
2023-04-04T12:12:59.119Z,49.71
2023-04-04T12:15:28.193Z,49.36
2023-04-04T12:17:55.569Z,49.08
2023-04-04T12:20:24.277Z,49.72
2023-04-04T12:22:54.480Z,50.00
2023-04-04T12:25:22.728Z,50.25
2023-04-04T12:27:50.112Z,50.00
2023-04-04T12:30:17.175Z,50.70
2023-04-04T12:32:45.065Z,50.06
2023-04-04T12:35:13.477Z,50.02
2023-04-04T12:37:41.261Z,50.68
2023-04-04T12:40:08.398Z,51.88
2023-04-04T12:42:35.593Z,52.01
2023-04-04T12:45:04.119Z,51.95
2023-04-04T12:47:31.457Z,51.61
2023-04-04T12:49:58.568Z,51.25
2023-04-04T12:52:32.198Z,50.93
2023-04-04T12:55:09.701Z,50.45
2023-04-04T12:57:38.322Z,50.60
2023-04-04T13:00:07.885Z,52.12
2023-04-04T13:02:35.753Z,51.64
2023-04-04T13:05:02.837Z,51.90
2023-04-04T13:07:34.962Z,51.42
2023-04-04T13:10:03.957Z,50.04
2023-04-04T13:12:59.643Z,49.43
2023-04-04T13:15:49.302Z,49.31
2023-04-04T13:18:24.707Z,48.56
2023-04-04T13:20:52.319Z,48.40
2023-04-04T13:23:19.340Z,48.22
2023-04-04T13:25:46.275Z,49.46
2023-04-04T13:28:13.301Z,50.85
2023-04-04T13:30:43.814Z,51.47
2023-04-04T13:33:11.261Z,50.82
2023-04-04T13:35:38.788Z,49.69
2023-04-04T13:38:06.027Z,49.25
2023-04-04T13:40:33.083Z,48.86
2023-04-04T13:43:00.114Z,48.86
2023-04-04T13:45:27.029Z,48.50
2023-04-04T13:47:54.049Z,48.19
2023-04-04T13:50:22.207Z,48.17
2023-04-04T13:52:51.991Z,47.57
2023-04-04T13:55:18.998Z,47.53
2023-04-04T13:57:46.161Z,46.90
2023-04-04T14:00:13.669Z,46.66
2023-04-04T14:02:40.689Z,46.64
2023-04-04T14:05:08.191Z,47.10
2023-04-04T14:07:37.792Z,48.54
2023-04-04T14:10:05.471Z,47.74
2023-04-04T14:12:32.412Z,47.32
2023-04-04T14:14:59.371Z,49.07
2023-04-04T14:17:26.499Z,49.91
2023-04-04T14:19:53.512Z,50.80
2023-04-04T14:22:20.425Z,50.77
2023-04-04T14:24:47.350Z,52.13
2023-04-04T14:27:14.315Z,52.77
2023-04-04T14:29:41.489Z,51.67
2023-04-04T14:32:08.585Z,52.23
2023-04-04T14:34:35.682Z,51.69
2023-04-04T14:37:02.731Z,51.56
2023-04-04T14:39:29.821Z,51.22
2023-04-04T14:41:57.203Z,50.75
2023-04-04T14:44:25.228Z,50.14
2023-04-04T14:46:55.372Z,50.80
2023-04-04T14:49:22.875Z,52.51
2023-04-04T14:51:51.075Z,53.56
2023-04-04T14:54:18.053Z,53.97
2023-04-04T14:56:45.747Z,53.80
2023-04-04T14:59:12.976Z,54.75
2023-04-04T15:01:40.225Z,55.56
2023-04-04T15:04:07.403Z,54.80
2023-04-04T15:06:37.935Z,56.60
2023-04-04T15:09:08.760Z,58.07
2023-04-04T15:11:36.177Z,59.58
2023-04-04T15:14:03.233Z,60.89
2023-04-04T15:16:33.237Z,61.77
2023-04-04T15:19:01.003Z,62.50
2023-04-04T15:21:31.784Z,64.11
2023-04-04T15:23:58.823Z,64.61
2023-04-04T15:26:26.160Z,65.26
2023-04-04T15:28:53.177Z,65.67
2023-04-04T15:31:20.972Z,65.80
2023-04-04T15:33:48.489Z,65.71
2023-04-04T15:36:16.602Z,66.29
2023-04-04T15:38:43.506Z,66.96
2023-04-04T15:41:10.509Z,67.75
2023-04-04T15:43:37.487Z,68.37
2023-04-04T15:46:04.912Z,69.67
2023-04-04T15:48:32.172Z,70.42
2023-04-04T15:51:02.635Z,70.99
2023-04-04T15:53:32.520Z,71.65
2023-04-04T15:55:59.581Z,72.40
2023-04-04T15:58:26.541Z,72.70
2023-04-04T16:00:53.534Z,72.67
2023-04-04T16:03:20.678Z,71.73
2023-04-04T16:05:48.191Z,70.66
2023-04-04T16:08:15.127Z,70.29
2023-04-04T16:10:44.134Z,70.14
2023-04-04T16:13:11.374Z,70.08
2023-04-04T16:15:38.507Z,70.12
2023-04-04T16:18:05.633Z,70.04
2023-04-04T16:20:32.566Z,69.88
2023-04-04T16:22:59.506Z,69.72
2023-04-04T16:25:27.094Z,70.16
2023-04-04T16:27:54.156Z,70.41
2023-04-04T16:30:21.165Z,70.47
2023-04-04T16:32:48.171Z,70.73
2023-04-04T16:35:15.257Z,71.13
2023-04-04T16:37:42.167Z,71.37
2023-04-04T16:40:09.532Z,71.27
2023-04-04T16:42:36.579Z,71.70
2023-04-04T16:45:03.890Z,72.20
2023-04-04T16:47:30.838Z,72.37
2023-04-04T16:49:58.734Z,72.53
2023-04-04T16:52:25.619Z,72.69
2023-04-04T16:54:54.557Z,72.75
2023-04-04T16:57:21.468Z,72.89
2023-04-04T16:59:48.470Z,73.12
2023-04-04T17:02:15.548Z,73.23
2023-04-04T17:04:42.518Z,73.31
2023-04-04T17:07:09.519Z,73.28
2023-04-04T17:09:37.066Z,73.21
2023-04-04T17:12:04.014Z,73.30
2023-04-04T17:14:31.082Z,73.13
2023-04-04T17:17:00.669Z,73.47
2023-04-04T17:19:30.109Z,73.39
2023-04-04T17:21:58.272Z,73.44
2023-04-04T17:24:27.968Z,73.84
2023-04-04T17:26:57.021Z,74.20
2023-04-04T17:29:26.909Z,74.41
2023-04-04T17:31:55.098Z,74.45
2023-04-04T17:34:22.409Z,74.98
2023-04-04T17:36:51.321Z,75.21
2023-04-04T17:39:18.444Z,75.29
2023-04-04T17:41:48.684Z,75.40
2023-04-04T17:44:16.425Z,75.30
2023-04-04T17:46:43.417Z,75.69
2023-04-04T17:49:10.478Z,76.09
2023-04-04T17:51:37.570Z,76.15
2023-04-04T17:54:05.296Z,76.09
2023-04-04T17:56:32.596Z,76.37
2023-04-04T17:58:59.682Z,76.80
2023-04-04T18:01:28.116Z,77.19
2023-04-04T18:03:55.862Z,77.67
2023-04-04T18:06:23.980Z,77.73
2023-04-04T18:08:51.186Z,77.68
2023-04-04T18:11:18.077Z,77.80
2023-04-04T18:13:45.211Z,77.75
2023-04-04T18:16:12.313Z,77.80
2023-04-04T18:18:40.495Z,77.80
2023-04-04T18:21:08.561Z,77.67
2023-04-04T18:23:35.603Z,78.03
2023-04-04T18:26:02.675Z,78.06
2023-04-04T18:28:29.755Z,78.24
2023-04-04T18:30:56.737Z,78.29
2023-04-04T18:33:25.102Z,78.19
2023-04-04T18:35:52.082Z,78.25
2023-04-04T18:38:19.497Z,78.78
2023-04-04T18:40:46.685Z,79.15
2023-04-04T18:43:13.936Z,79.50
2023-04-04T18:45:41.610Z,80.21
2023-04-04T18:48:08.785Z,80.85
2023-04-04T18:50:36.084Z,81.06
2023-04-04T18:53:03.082Z,80.50
2023-04-04T18:55:30.052Z,80.00
2023-04-04T18:57:57.576Z,79.55
2023-04-04T19:00:24.704Z,79.73
2023-04-04T19:02:51.877Z,80.00
2023-04-04T19:05:23.403Z,80.22
2023-04-04T19:07:51.614Z,79.78
2023-04-04T19:10:18.514Z,79.69
2023-04-04T19:12:45.512Z,79.73
2023-04-04T19:15:12.741Z,79.48
2023-04-04T19:17:40.111Z,79.62
2023-04-04T19:20:08.361Z,79.97
2023-04-04T19:22:35.652Z,79.94
2023-04-04T19:25:02.578Z,80.41
2023-04-04T19:27:29.650Z,80.73
2023-04-04T19:29:56.552Z,80.27
2023-04-04T19:32:24.927Z,80.85
2023-04-04T19:34:52.393Z,81.69
2023-04-04T19:37:19.298Z,82.06
2023-04-04T19:39:46.461Z,82.13
2023-04-04T19:42:13.377Z,82.27
2023-04-04T19:44:40.971Z,82.53
2023-04-04T19:47:09.991Z,82.63
2023-04-04T19:49:38.228Z,82.78
2023-04-04T19:52:05.674Z,82.88
2023-04-04T19:54:43.058Z,82.83
2023-04-04T19:57:23.503Z,83.53
2023-04-04T20:00:11.039Z,83.74
2023-04-04T20:02:47.914Z,83.38
2023-04-04T20:05:32.218Z,84.08
2023-04-04T20:08:00.244Z,84.50
2023-04-04T20:10:37.490Z,84.43
2023-04-04T20:13:07.269Z,84.63
2023-04-04T20:15:43.760Z,84.34
2023-04-04T20:18:10.839Z,84.77
2023-04-04T20:21:12.738Z,84.48
2023-04-04T20:23:58.238Z,84.85
2023-04-04T20:26:54.637Z,84.98
2023-04-04T20:29:27.153Z,85.23
2023-04-04T20:31:55.964Z,85.40
2023-04-04T20:34:37.154Z,86.09
2023-04-04T20:37:07.766Z,86.40
2023-04-04T20:39:41.215Z,86.43
2023-04-04T20:42:18.330Z,86.74
2023-04-04T20:44:46.152Z,87.02
2023-04-04T20:47:43.393Z,87.13
2023-04-04T20:50:16.262Z,87.13
2023-04-04T20:52:46.567Z,87.62
2023-04-04T20:55:13.484Z,87.48
2023-04-04T20:57:40.497Z,87.84
2023-04-04T21:00:28.305Z,88.05
2023-04-04T21:02:59.480Z,87.60
2023-04-04T21:05:31.278Z,87.96
2023-04-04T21:07:58.736Z,88.15
2023-04-04T21:10:28.591Z,88.54
2023-04-04T21:12:59.406Z,88.55
2023-04-04T21:15:30.148Z,88.43
2023-04-04T21:17:59.244Z,88.82
2023-04-04T21:20:44.942Z,89.11
2023-04-04T21:23:33.243Z,89.30
2023-04-04T21:26:02.025Z,89.45
2023-04-04T21:28:39.456Z,89.43
2023-04-04T21:31:14.101Z,89.82
2023-04-04T21:33:44.959Z,89.93
2023-04-04T21:36:21.436Z,90.53
2023-04-04T21:38:48.350Z,89.77
2023-04-04T21:41:27.192Z,89.99
2023-04-04T21:43:54.827Z,90.18
2023-04-04T21:46:25.717Z,90.18
2023-04-04T21:48:53.077Z,90.78
2023-04-04T21:51:20.055Z,90.79
2023-04-04T21:53:47.031Z,90.60
2023-04-04T21:56:14.044Z,90.48
2023-04-04T21:58:41.528Z,90.52
2023-04-04T22:01:08.679Z,90.67
2023-04-04T22:03:37.459Z,90.75
2023-04-04T22:06:04.731Z,90.83
2023-04-04T22:08:31.696Z,90.94
2023-04-04T22:11:01.857Z,91.39
2023-04-04T22:13:35.289Z,91.53
2023-04-04T22:16:04.636Z,91.82
2023-04-04T22:18:33.214Z,91.34
2023-04-04T22:21:04.410Z,91.31
2023-04-04T22:23:37.796Z,91.86
2023-04-04T22:26:05.455Z,91.53
2023-04-04T22:28:33.471Z,91.65
2023-04-04T22:31:01.833Z,91.47
2023-04-04T22:33:29.895Z,91.70
2023-04-04T22:35:58.060Z,91.54
2023-04-04T22:38:25.774Z,91.86
2023-04-04T22:40:52.783Z,91.93
2023-04-04T22:43:20.492Z,92.05
2023-04-04T22:45:47.554Z,92.29
2023-04-04T22:48:17.333Z,92.20
2023-04-04T22:50:49.888Z,92.39
2023-04-04T22:53:24.703Z,93.02
2023-04-04T22:55:52.763Z,93.02
2023-04-04T22:58:20.998Z,92.62
2023-04-04T23:00:48.097Z,92.63
2023-04-04T23:03:15.028Z,92.85
2023-04-04T23:05:42.238Z,93.27
2023-04-04T23:08:09.195Z,93.22
2023-04-04T23:10:36.872Z,92.95
2023-04-04T23:13:03.881Z,93.06
2023-04-04T23:15:33.158Z,93.63
2023-04-04T23:18:00.146Z,93.35
2023-04-04T23:20:28.046Z,93.52
2023-04-04T23:22:55.059Z,93.79
2023-04-04T23:25:21.862Z,93.67
2023-04-04T23:27:48.747Z,93.93
2023-04-04T23:30:15.860Z,93.77
2023-04-04T23:32:42.862Z,93.87
2023-04-04T23:35:09.975Z,94.21
2023-04-04T23:37:36.951Z,94.50
2023-04-04T23:40:05.478Z,94.77
2023-04-04T23:42:32.408Z,94.36
2023-04-04T23:45:01.085Z,94.81
2023-04-04T23:47:28.194Z,94.70
2023-04-04T23:49:55.293Z,95.04
2023-04-04T23:52:22.229Z,95.08
2023-04-04T23:54:49.264Z,95.50
2023-04-04T23:57:16.679Z,95.80
2023-04-04T23:59:43.504Z,95.79
